Time;durP1;ratioP1;P1;durP2;ratioP2;P2;SDS_P1;SDS_P2;PMS_P1;PMS_P2;Temp;Humidity;BMP_temperature;BMP_pressure;BME280_temperature;BME280_humidity;BME280_pressure;Samples;Min_cycle;Max_cycle;Signal;HPM_P1;HPM_P2
2022/12/20 00:02:31;;;;;;;;;;;10.00;99.90;;;;;;8374841;28;20448;-71
2022/12/20 00:06:34;;;;;;;;;;;10.10;99.90;;;;;;8378750;28;19947;-71
2022/12/20 00:10:40;;;;;;;;;;;10.10;99.90;;;;;;8377274;28;20391;-71
2022/12/20 00:14:42;;;;;;;;;;;10.10;99.90;;;;;;8381720;28;19947;-71
2022/12/20 00:18:44;;;;;;;;;;;10.20;99.90;;;;;;8371953;28;20327;-71
2022/12/20 00:22:45;;;;;;;;;;;10.20;99.90;;;;;;8381580;28;20562;-71
2022/12/20 00:26:47;;;;;;;;;;;10.20;99.90;;;;;;8373265;28;19931;-71
2022/12/20 00:30:52;;;;;;;;;;;10.30;99.90;;;;;;8379813;28;19943;-71
2022/12/20 00:34:53;;;;;;;;;;;10.30;99.90;;;;;;8382974;28;19925;-71
2022/12/20 00:38:56;;;;;;;;;;;10.30;99.90;;;;;;8356673;28;20342;-71
2022/12/20 00:42:57;;;;;;;;;;;10.30;99.90;;;;;;8368708;28;20410;-71
2022/12/20 00:46:59;;;;;;;;;;;10.40;99.90;;;;;;8374426;28;19936;-71
2022/12/20 00:51:02;;;;;;;;;;;10.40;99.90;;;;;;8356031;28;20023;-71
2022/12/20 00:55:04;;;;;;;;;;;10.40;99.90;;;;;;8362649;28;19924;-71
2022/12/20 00:59:05;;;;;;;;;;;10.40;99.90;;;;;;8356534;28;20443;-71
2022/12/20 01:03:07;;;;;;;;;;;10.50;99.90;;;;;;8364305;28;19924;-71
2022/12/20 01:07:10;;;;;;;;;;;10.50;99.90;;;;;;8368351;28;19928;-71
2022/12/20 01:11:19;;;;;;;;;;;10.50;99.90;;;;;;8376028;28;20356;-71
2022/12/20 01:15:20;;;;;;;;;;;10.50;99.90;;;;;;8376248;28;19925;-71
2022/12/20 01:19:22;;;;;;;;;;;10.50;99.90;;;;;;8378758;28;19946;-71
2022/12/20 01:23:24;;;;;;;;;;;10.40;99.90;;;;;;8390831;28;19933;-72
2022/12/20 01:27:26;;;;;;;;;;;10.40;99.90;;;;;;8378994;28;19932;-71
2022/12/20 01:31:28;;;;;;;;;;;10.30;99.90;;;;;;8407119;28;19932;-70
2022/12/20 01:35:30;;;;;;;;;;;10.10;99.90;;;;;;8374504;28;19955;-71
2022/12/20 01:39:32;;;;;;;;;;;10.00;99.90;;;;;;8374092;28;19964;-71
2022/12/20 01:44:03;;;;;;;;;;;9.90;99.90;;;;;;8385535;28;20394;-71
2022/12/20 01:48:05;;;;;;;;;;;9.90;99.90;;;;;;8378495;28;20006;-71
2022/12/20 01:52:09;;;;;;;;;;;9.80;99.90;;;;;;8375742;28;19925;-71
2022/12/20 01:56:11;;;;;;;;;;;9.80;99.90;;;;;;8381158;28;19934;-71
2022/12/20 02:00:13;;;;;;;;;;;9.80;99.90;;;;;;8385702;28;19928;-71
2022/12/20 02:04:15;;;;;;;;;;;9.70;99.90;;;;;;8381901;28;20008;-71
2022/12/20 02:08:18;;;;;;;;;;;9.70;99.90;;;;;;8380014;28;19924;-71
2022/12/20 02:12:21;;;;;;;;;;;9.70;99.90;;;;;;8388788;28;19952;-71
2022/12/20 02:16:25;;;;;;;;;;;9.70;99.90;;;;;;8391240;28;19931;-71
2022/12/20 02:20:42;;;;;;;;;;;9.70;99.90;;;;;;8384016;28;20357;-71
2022/12/20 02:24:57;;;;;;;;;;;9.70;99.90;;;;;;8390250;28;19931;-71
2022/12/20 02:29:10;;;;;;;;;;;9.80;99.90;;;;;;8377272;28;19924;-71
2022/12/20 02:33:13;;;;;;;;;;;9.80;99.90;;;;;;8385775;28;19971;-71
2022/12/20 02:37:14;;;;;;;;;;;9.80;99.90;;;;;;8379963;28;19936;-71
2022/12/20 02:41:19;;;;;;;;;;;9.80;99.90;;;;;;8368842;28;19924;-71
2022/12/20 02:45:24;;;;;;;;;;;9.80;99.90;;;;;;8378102;28;19928;-71
2022/12/20 02:49:28;;;;;;;;;;;9.80;99.90;;;;;;8365084;28;19935;-71
2022/12/20 02:53:30;;;;;;;;;;;9.90;99.90;;;;;;8386146;28;20292;-71
2022/12/20 02:57:34;;;;;;;;;;;9.90;99.90;;;;;;8402652;28;19925;-71
2022/12/20 03:01:48;;;;;;;;;;;9.90;99.90;;;;;;8384993;28;19931;-71
2022/12/20 03:05:51;;;;;;;;;;;9.90;99.90;;;;;;8389663;28;19935;-71
2022/12/20 03:09:53;;;;;;;;;;;9.90;99.90;;;;;;8395052;28;19971;-71
2022/12/20 03:13:55;;;;;;;;;;;9.90;99.90;;;;;;8362357;28;19933;-71
2022/12/20 03:17:56;;;;;;;;;;;9.90;99.90;;;;;;8362101;28;19928;-71
2022/12/20 03:21:58;;;;;;;;;;;9.90;99.90;;;;;;8364951;28;19931;-71
2022/12/20 03:25:59;;;;;;;;;;;10.00;99.90;;;;;;8393108;28;19931;-71
2022/12/20 03:30:02;;;;;;;;;;;10.00;99.90;;;;;;8381711;28;19971;-71
2022/12/20 03:34:04;;;;;;;;;;;10.00;99.90;;;;;;8382642;28;19984;-71
2022/12/20 03:38:05;;;;;;;;;;;10.00;99.90;;;;;;8381586;28;19925;-71
2022/12/20 03:42:07;;;;;;;;;;;10.10;99.90;;;;;;8352071;28;19925;-71
2022/12/20 03:46:09;;;;;;;;;;;10.10;99.90;;;;;;8376829;28;19968;-71
2022/12/20 03:50:11;;;;;;;;;;;10.10;99.90;;;;;;8359370;28;19933;-71
2022/12/20 03:54:12;;;;;;;;;;;10.20;99.90;;;;;;8374211;28;20370;-71
2022/12/20 03:58:14;;;;;;;;;;;10.20;99.90;;;;;;8372122;28;19933;-71
2022/12/20 04:02:15;;;;;;;;;;;10.30;99.90;;;;;;8373808;28;20295;-71
2022/12/20 04:06:18;;;;;;;;;;;10.30;99.90;;;;;;8373495;28;19924;-71
2022/12/20 04:10:19;;;;;;;;;;;10.40;99.90;;;;;;8363022;28;20016;-71
2022/12/20 04:14:21;;;;;;;;;;;10.40;99.90;;;;;;8395537;28;19928;-71
2022/12/20 04:18:22;;;;;;;;;;;10.40;99.90;;;;;;8393917;28;19974;-71
2022/12/20 04:22:24;;;;;;;;;;;10.50;99.90;;;;;;8385842;28;19924;-71
2022/12/20 04:26:26;;;;;;;;;;;10.50;99.90;;;;;;8379281;28;19924;-71
2022/12/20 04:30:28;;;;;;;;;;;10.50;99.90;;;;;;8380488;28;19925;-71
2022/12/20 04:34:30;;;;;;;;;;;10.50;99.90;;;;;;8361437;28;19963;-71
2022/12/20 04:38:31;;;;;;;;;;;10.50;99.90;;;;;;8379517;28;20019;-71
2022/12/20 04:42:33;;;;;;;;;;;10.60;99.90;;;;;;8357287;28;19924;-71
2022/12/20 04:46:34;;;;;;;;;;;10.60;99.90;;;;;;8395209;28;20363;-71
2022/12/20 04:50:36;;;;;;;;;;;10.60;99.90;;;;;;8369941;28;19925;-71
2022/12/20 04:54:38;;;;;;;;;;;10.60;99.90;;;;;;8378076;28;19979;-71
2022/12/20 04:58:40;;;;;;;;;;;10.50;99.90;;;;;;8391287;28;19929;-72
2022/12/20 05:02:41;;;;;;;;;;;10.40;99.90;;;;;;8371269;28;19983;-71
2022/12/20 05:06:43;;;;;;;;;;;10.40;99.90;;;;;;8389006;28;20367;-71
2022/12/20 05:10:45;;;;;;;;;;;10.30;99.90;;;;;;8361405;28;19924;-71
2022/12/20 05:14:47;;;;;;;;;;;10.40;99.90;;;;;;8369411;28;20019;-71
2022/12/20 05:18:49;;;;;;;;;;;10.40;99.90;;;;;;8376566;28;20604;-71
2022/12/20 05:27:11;;;;;;;;;;;10.40;99.90;;;;;;8381772;28;19939;-71
2022/12/20 05:31:12;;;;;;;;;;;10.40;99.90;;;;;;8385103;28;20328;-71
2022/12/20 05:35:14;;;;;;;;;;;10.40;99.90;;;;;;8391925;28;19925;-71
2022/12/20 05:39:16;;;;;;;;;;;10.50;99.90;;;;;;8400779;28;20372;-71
2022/12/20 05:43:18;;;;;;;;;;;10.50;99.90;;;;;;8394638;28;19963;-72
2022/12/20 05:47:19;;;;;;;;;;;10.50;99.90;;;;;;8400942;28;19928;-71
2022/12/20 05:51:21;;;;;;;;;;;10.60;99.90;;;;;;8383170;28;20387;-71
2022/12/20 05:55:23;;;;;;;;;;;10.60;99.90;;;;;;8369254;28;19969;-71
2022/12/20 05:59:25;;;;;;;;;;;10.60;99.90;;;;;;8397331;28;19928;-71
2022/12/20 06:03:26;;;;;;;;;;;10.60;99.90;;;;;;8374639;28;19925;-71
2022/12/20 06:07:28;;;;;;;;;;;10.60;99.90;;;;;;8384637;28;19931;-71
2022/12/20 06:11:30;;;;;;;;;;;10.60;99.90;;;;;;8377560;28;20012;-71
2022/12/20 06:15:31;;;;;;;;;;;10.70;99.90;;;;;;8393002;28;19935;-71
2022/12/20 06:19:33;;;;;;;;;;;10.70;99.90;;;;;;8373431;28;19928;-71
2022/12/20 06:23:35;;;;;;;;;;;10.70;99.90;;;;;;8384607;28;19925;-71
2022/12/20 06:27:36;;;;;;;;;;;10.80;99.90;;;;;;8375268;28;19931;-71
2022/12/20 06:31:38;;;;;;;;;;;10.80;99.90;;;;;;8382065;28;20003;-71
2022/12/20 06:35:40;;;;;;;;;;;10.90;99.90;;;;;;8380238;28;19970;-71
2022/12/20 06:39:42;;;;;;;;;;;10.90;99.90;;;;;;8374740;28;19931;-71
2022/12/20 06:43:44;;;;;;;;;;;10.90;99.90;;;;;;8386221;28;19932;-71
2022/12/20 06:47:45;;;;;;;;;;;11.00;99.90;;;;;;8366399;28;19932;-71
2022/12/20 06:51:47;;;;;;;;;;;11.00;99.90;;;;;;8377676;28;19987;-72
2022/12/20 06:55:49;;;;;;;;;;;11.00;99.90;;;;;;8388306;28;19925;-71
2022/12/20 06:59:50;;;;;;;;;;;11.00;99.90;;;;;;8392589;28;19924;-71
2022/12/20 07:03:52;;;;;;;;;;;11.00;99.90;;;;;;8371372;28;20292;-71
2022/12/20 07:07:54;;;;;;;;;;;11.10;99.90;;;;;;8387689;28;20162;-71
2022/12/20 07:11:56;;;;;;;;;;;11.10;99.90;;;;;;8363791;28;19940;-71
2022/12/20 07:15:58;;;;;;;;;;;11.10;99.90;;;;;;8356409;28;22088;-71
2022/12/20 07:20:00;;;;;;;;;;;11.20;99.90;;;;;;8363842;28;20023;-71
2022/12/20 07:24:01;;;;;;;;;;;11.20;99.90;;;;;;8381747;28;19932;-71
2022/12/20 07:28:03;;;;;;;;;;;11.20;99.90;;;;;;8380750;28;19936;-71
2022/12/20 07:32:05;;;;;;;;;;;11.20;99.90;;;;;;8392079;28;19932;-71
2022/12/20 07:36:09;;;;;;;;;;;11.30;99.90;;;;;;8379701;28;19924;-71
2022/12/20 07:40:11;;;;;;;;;;;11.30;99.90;;;;;;8383133;28;20301;-72
2022/12/20 07:44:13;;;;;;;;;;;11.30;99.90;;;;;;8378062;28;19928;-71
2022/12/20 07:48:14;;;;;;;;;;;11.30;99.90;;;;;;8393508;28;20378;-71
2022/12/20 07:52:22;;;;;;;;;;;11.30;99.90;;;;;;8397910;28;19924;-71
2022/12/20 07:56:25;;;;;;;;;;;11.20;99.90;;;;;;8402128;28;19924;-71
2022/12/20 08:00:27;;;;;;;;;;;11.10;99.90;;;;;;8398439;28;19935;-71
2022/12/20 08:04:29;;;;;;;;;;;11.10;99.90;;;;;;8397761;28;20298;-71
2022/12/20 08:08:32;;;;;;;;;;;11.10;99.90;;;;;;8370121;28;20313;-72
2022/12/20 08:12:34;;;;;;;;;;;11.00;99.90;;;;;;8381223;28;19928;-71
2022/12/20 08:16:36;;;;;;;;;;;11.00;99.90;;;;;;8402687;28;20288;-71
2022/12/20 08:20:37;;;;;;;;;;;11.00;99.90;;;;;;8377392;28;19954;-72
2022/12/20 08:24:39;;;;;;;;;;;11.00;99.90;;;;;;8405591;28;19975;-72
2022/12/20 08:28:41;;;;;;;;;;;11.00;99.90;;;;;;8405106;28;19928;-71
2022/12/20 08:32:42;;;;;;;;;;;11.00;99.90;;;;;;8400274;28;19930;-71
2022/12/20 08:36:44;;;;;;;;;;;11.00;99.90;;;;;;8390398;28;19935;-71
2022/12/20 08:40:45;;;;;;;;;;;11.00;99.90;;;;;;8389410;28;19977;-71
2022/12/20 08:44:47;;;;;;;;;;;11.00;99.90;;;;;;8397945;28;20007;-71
2022/12/20 08:48:49;;;;;;;;;;;11.00;99.90;;;;;;8391129;28;20398;-72
2022/12/20 08:52:50;;;;;;;;;;;11.00;99.90;;;;;;8387520;28;19925;-71
2022/12/20 08:56:52;;;;;;;;;;;11.00;99.90;;;;;;8407897;28;19934;-71
2022/12/20 09:00:57;;;;;;;;;;;10.90;99.90;;;;;;8392246;28;19924;-71
2022/12/20 09:05:04;;;;;;;;;;;10.80;99.90;;;;;;8395930;28;19932;-71
2022/12/20 09:09:06;;;;;;;;;;;10.70;99.90;;;;;;8386730;28;20344;-71
2022/12/20 09:13:08;;;;;;;;;;;10.60;99.90;;;;;;8374369;28;19924;-71
2022/12/20 09:17:10;;;;;;;;;;;10.60;99.90;;;;;;8392169;28;19931;-71
2022/12/20 09:21:11;;;;;;;;;;;10.60;99.90;;;;;;8390699;28;20295;-71
2022/12/20 09:25:13;;;;;;;;;;;10.60;99.90;;;;;;8391700;28;19979;-70
2022/12/20 09:29:14;;;;;;;;;;;10.50;99.90;;;;;;8365991;28;19936;-71
2022/12/20 09:33:21;;;;;;;;;;;10.50;99.90;;;;;;8397541;28;19924;-71
2022/12/20 09:37:23;;;;;;;;;;;10.40;99.90;;;;;;8400311;28;19930;-70
2022/12/20 09:41:30;;;;;;;;;;;10.40;99.90;;;;;;8386058;28;19936;-70
2022/12/20 09:45:34;;;;;;;;;;;10.40;99.90;;;;;;8405151;28;19936;-70
2022/12/20 09:49:38;;;;;;;;;;;10.40;99.90;;;;;;8409415;28;20421;-70
2022/12/20 09:53:46;;;;;;;;;;;10.40;99.90;;;;;;8381479;28;19964;-70
2022/12/20 09:57:50;;;;;;;;;;;10.30;99.90;;;;;;8384713;28;19924;-70
2022/12/20 10:01:52;;;;;;;;;;;10.30;99.90;;;;;;8387918;28;19979;-70
2022/12/20 10:05:55;;;;;;;;;;;10.30;99.90;;;;;;8392986;28;19924;-71
2022/12/20 10:10:04;;;;;;;;;;;10.30;99.90;;;;;;8414277;28;19924;-70
2022/12/20 10:14:17;;;;;;;;;;;10.30;99.90;;;;;;8404907;28;20482;-70
2022/12/20 10:18:38;;;;;;;;;;;10.30;99.90;;;;;;8396277;28;19928;-70
2022/12/20 10:22:42;;;;;;;;;;;10.30;99.90;;;;;;8386450;28;19928;-71
2022/12/20 10:26:45;;;;;;;;;;;10.30;99.90;;;;;;8396435;28;20346;-70
2022/12/20 10:30:47;;;;;;;;;;;10.30;99.90;;;;;;8397117;28;20510;-70
2022/12/20 10:34:55;;;;;;;;;;;10.30;99.90;;;;;;8397830;28;20053;-70
2022/12/20 10:38:58;;;;;;;;;;;10.30;99.90;;;;;;8403412;28;19924;-70
2022/12/20 10:43:01;;;;;;;;;;;10.30;99.90;;;;;;8381909;28;20493;-70
2022/12/20 10:47:20;;;;;;;;;;;10.40;99.90;;;;;;8406425;28;19936;-70
2022/12/20 10:51:21;;;;;;;;;;;10.40;99.90;;;;;;8395927;28;20020;-70
2022/12/20 10:55:33;;;;;;;;;;;10.40;99.90;;;;;;8403599;28;19924;-70
2022/12/20 10:59:37;;;;;;;;;;;10.30;99.90;;;;;;8391942;28;20374;-70
2022/12/20 11:03:55;;;;;;;;;;;10.40;99.90;;;;;;8388178;28;20027;-70
2022/12/20 11:08:11;;;;;;;;;;;10.40;99.90;;;;;;8395196;28;19933;-70
2022/12/20 11:12:33;;;;;;;;;;;10.40;99.90;;;;;;8373436;28;20007;-70
2022/12/20 11:16:36;;;;;;;;;;;10.40;99.90;;;;;;8395454;28;20011;-70
2022/12/20 11:20:59;;;;;;;;;;;10.40;99.90;;;;;;8392670;28;19924;-70
2022/12/20 11:25:10;;;;;;;;;;;10.40;99.90;;;;;;8391291;28;19972;-70
2022/12/20 11:29:20;;;;;;;;;;;10.40;99.90;;;;;;8374401;28;20015;-70
2022/12/20 11:33:25;;;;;;;;;;;10.40;99.90;;;;;;8409308;28;19925;-71
2022/12/20 11:37:31;;;;;;;;;;;10.40;99.90;;;;;;8402458;28;19924;-70
2022/12/20 11:41:38;;;;;;;;;;;10.40;99.90;;;;;;8387437;28;20012;-70
2022/12/20 11:45:40;;;;;;;;;;;10.40;99.90;;;;;;8376570;28;19931;-70
2022/12/20 11:50:02;;;;;;;;;;;10.40;99.90;;;;;;8394855;28;19968;-70
2022/12/20 11:54:08;;;;;;;;;;;10.40;99.90;;;;;;8389534;28;19925;-70
2022/12/20 11:58:13;;;;;;;;;;;10.50;99.90;;;;;;8396929;28;19935;-71
2022/12/20 12:02:24;;;;;;;;;;;10.50;99.90;;;;;;8386772;28;20379;-71
2022/12/20 12:06:28;;;;;;;;;;;10.50;99.90;;;;;;8389347;28;19932;-70
2022/12/20 12:10:36;;;;;;;;;;;10.50;99.90;;;;;;8396473;28;19932;-71
2022/12/20 12:14:56;;;;;;;;;;;10.50;99.90;;;;;;8408288;28;20422;-70
2022/12/20 12:18:59;;;;;;;;;;;10.50;99.90;;;;;;8397364;28;19924;-71
2022/12/20 12:23:04;;;;;;;;;;;10.60;99.90;;;;;;8401685;28;20022;-70
2022/12/20 12:27:07;;;;;;;;;;;10.60;99.90;;;;;;8407187;28;19940;-70
2022/12/20 12:31:17;;;;;;;;;;;10.60;99.90;;;;;;8387099;28;20433;-70
2022/12/20 12:35:22;;;;;;;;;;;10.60;99.90;;;;;;8393835;28;19925;-71
2022/12/20 12:39:29;;;;;;;;;;;10.60;99.90;;;;;;8396699;28;21016;-70
2022/12/20 12:43:30;;;;;;;;;;;10.60;99.90;;;;;;8380022;28;19932;-70
2022/12/20 12:47:38;;;;;;;;;;;10.60;99.90;;;;;;8373847;28;19947;-70
2022/12/20 12:51:41;;;;;;;;;;;10.60;99.90;;;;;;8384415;28;20367;-70
2022/12/20 12:55:44;;;;;;;;;;;10.60;99.90;;;;;;8404268;28;19931;-70
2022/12/20 12:59:47;;;;;;;;;;;10.60;99.90;;;;;;8397155;28;20015;-70
2022/12/20 13:03:52;;;;;;;;;;;10.60;99.90;;;;;;8385217;28;19925;-70
2022/12/20 13:07:54;;;;;;;;;;;10.60;99.90;;;;;;8401053;28;19939;-70
2022/12/20 13:11:56;;;;;;;;;;;10.60;99.90;;;;;;8395606;28;19924;-70
2022/12/20 13:16:05;;;;;;;;;;;10.60;99.90;;;;;;8377023;28;20300;-70
2022/12/20 13:20:14;;;;;;;;;;;10.70;99.90;;;;;;8392422;28;19970;-71
2022/12/20 13:24:35;;;;;;;;;;;10.70;99.90;;;;;;8399420;28;19931;-71
2022/12/20 13:28:43;;;;;;;;;;;10.70;99.90;;;;;;8398374;28;19977;-70
2022/12/20 13:32:48;;;;;;;;;;;10.70;99.90;;;;;;8401383;28;19925;-70
2022/12/20 13:36:57;;;;;;;;;;;10.70;99.90;;;;;;8395497;28;19933;-71
2022/12/20 13:40:59;;;;;;;;;;;10.70;99.90;;;;;;8390332;28;19932;-70
2022/12/20 13:45:02;;;;;;;;;;;10.70;99.90;;;;;;8402558;28;19931;-70
2022/12/20 13:49:04;;;;;;;;;;;10.70;99.90;;;;;;8401144;28;20467;-70
2022/12/20 13:53:14;;;;;;;;;;;10.70;99.90;;;;;;8400479;28;20276;-70
2022/12/20 13:57:20;;;;;;;;;;;10.70;99.90;;;;;;8379422;28;19925;-71
2022/12/20 14:01:23;;;;;;;;;;;10.60;99.90;;;;;;8394371;28;19939;-71
2022/12/20 14:05:29;;;;;;;;;;;10.70;99.90;;;;;;8385920;28;19931;-70
2022/12/20 14:09:31;;;;;;;;;;;10.60;99.90;;;;;;8379497;28;19936;-70
2022/12/20 14:13:33;;;;;;;;;;;10.60;99.90;;;;;;8403907;28;19982;-71
2022/12/20 14:17:34;;;;;;;;;;;10.70;99.90;;;;;;8395005;28;20019;-71
2022/12/20 14:21:43;;;;;;;;;;;10.60;99.90;;;;;;8395473;28;19928;-70
2022/12/20 14:25:48;;;;;;;;;;;10.60;99.90;;;;;;8398826;28;20379;-71
2022/12/20 14:29:50;;;;;;;;;;;10.60;99.90;;;;;;8396151;28;19924;-71
2022/12/20 14:34:01;;;;;;;;;;;10.60;99.90;;;;;;8387798;28;20302;-71
2022/12/20 14:38:03;;;;;;;;;;;10.60;99.90;;;;;;8396443;28;20384;-71
2022/12/20 14:42:05;;;;;;;;;;;10.60;99.90;;;;;;8403896;28;20300;-71
2022/12/20 14:46:18;;;;;;;;;;;10.60;99.90;;;;;;8389908;28;19925;-71
2022/12/20 14:50:26;;;;;;;;;;;10.60;99.90;;;;;;8398133;28;19924;-71
2022/12/20 14:54:28;;;;;;;;;;;10.50;99.90;;;;;;8391733;28;20283;-71
2022/12/20 14:59:05;;;;;;;;;;;10.50;99.90;;;;;;8380906;28;20003;-71
2022/12/20 15:03:16;;;;;;;;;;;10.60;99.90;;;;;;8381209;28;19925;-71
2022/12/20 15:07:28;;;;;;;;;;;10.50;99.90;;;;;;8411896;28;19924;-71
2022/12/20 15:11:30;;;;;;;;;;;10.50;99.90;;;;;;8403245;28;19931;-71
2022/12/20 15:15:33;;;;;;;;;;;10.50;99.90;;;;;;8398611;28;19924;-71
2022/12/20 15:19:34;;;;;;;;;;;10.50;99.90;;;;;;8381795;28;19981;-70
2022/12/20 15:23:44;;;;;;;;;;;10.50;99.90;;;;;;8397592;28;19970;-71
2022/12/20 15:27:45;;;;;;;;;;;10.50;99.90;;;;;;8390527;28;19925;-71
2022/12/20 15:31:48;;;;;;;;;;;10.50;99.90;;;;;;8394604;28;20307;-71
2022/12/20 15:35:50;;;;;;;;;;;10.50;99.90;;;;;;8408040;28;19973;-70
2022/12/20 15:39:52;;;;;;;;;;;10.50;99.90;;;;;;8374373;28;19929;-71
2022/12/20 15:44:04;;;;;;;;;;;10.40;99.90;;;;;;8389139;28;19924;-71
2022/12/20 15:48:11;;;;;;;;;;;10.40;99.90;;;;;;8392052;28;19932;-71
2022/12/20 15:52:20;;;;;;;;;;;10.40;99.90;;;;;;8394569;28;19931;-71
2022/12/20 15:56:22;;;;;;;;;;;10.40;99.90;;;;;;8406030;28;20015;-70
2022/12/20 16:00:24;;;;;;;;;;;10.40;99.90;;;;;;8364600;28;20307;-71
2022/12/20 16:04:27;;;;;;;;;;;10.40;99.90;;;;;;8363044;28;20411;-71
2022/12/20 16:08:29;;;;;;;;;;;10.40;99.90;;;;;;8336813;28;19932;-71
2022/12/20 16:12:33;;;;;;;;;;;10.40;99.90;;;;;;8358538;28;19928;-70
2022/12/20 16:16:35;;;;;;;;;;;10.40;99.90;;;;;;8341082;28;20291;-71
2022/12/20 16:20:37;;;;;;;;;;;10.40;99.90;;;;;;8355767;28;19977;-71
2022/12/20 16:24:39;;;;;;;;;;;10.40;99.90;;;;;;8368275;28;19939;-71
2022/12/20 16:28:41;;;;;;;;;;;10.40;99.90;;;;;;8363881;28;20028;-71
2022/12/20 16:32:43;;;;;;;;;;;10.40;99.90;;;;;;8340264;28;19936;-70
2022/12/20 16:36:45;;;;;;;;;;;10.30;99.90;;;;;;8357994;28;19972;-70
2022/12/20 16:40:48;;;;;;;;;;;10.30;99.90;;;;;;8355722;28;19960;-70
2022/12/20 16:44:50;;;;;;;;;;;10.30;99.90;;;;;;8356553;28;19976;-70
2022/12/20 16:48:52;;;;;;;;;;;10.30;99.90;;;;;;8361610;28;19931;-71
2022/12/20 16:52:54;;;;;;;;;;;10.30;99.90;;;;;;8362057;28;19931;-71
2022/12/20 16:56:56;;;;;;;;;;;10.30;99.90;;;;;;8367549;28;19929;-70
2022/12/20 17:00:58;;;;;;;;;;;10.30;99.90;;;;;;8363747;28;19932;-71
2022/12/20 17:05:00;;;;;;;;;;;10.30;99.90;;;;;;8367147;28;19937;-70
2022/12/20 17:09:02;;;;;;;;;;;10.30;99.90;;;;;;8346350;28;19979;-70
2022/12/20 17:13:04;;;;;;;;;;;10.30;99.90;;;;;;8370523;28;20312;-71
2022/12/20 17:17:06;;;;;;;;;;;10.30;99.90;;;;;;8372929;28;19924;-71
2022/12/20 17:21:27;;;;;;;;;;;10.30;99.90;;;;;;8373053;28;19929;-71
2022/12/20 17:25:31;;;;;;;;;;;10.30;99.90;;;;;;8352129;28;20415;-71
2022/12/20 17:29:32;;;;;;;;;;;10.30;99.90;;;;;;8362703;28;20023;-71
2022/12/20 17:33:34;;;;;;;;;;;10.30;99.90;;;;;;8368054;28;20310;-71
2022/12/20 17:37:36;;;;;;;;;;;10.30;99.90;;;;;;8369288;28;20288;-71
2022/12/20 17:41:37;;;;;;;;;;;10.30;99.90;;;;;;8366566;28;19925;-71
2022/12/20 17:45:40;;;;;;;;;;;10.30;99.90;;;;;;8368465;28;19935;-71
2022/12/20 17:49:41;;;;;;;;;;;10.30;99.90;;;;;;8361313;28;19935;-71
2022/12/20 17:53:44;;;;;;;;;;;10.30;99.90;;;;;;8362471;28;20377;-71
2022/12/20 17:57:46;;;;;;;;;;;10.30;99.90;;;;;;8362542;28;20345;-71
2022/12/20 18:01:48;;;;;;;;;;;10.30;99.90;;;;;;8368035;28;19935;-71
2022/12/20 18:05:51;;;;;;;;;;;10.20;99.90;;;;;;8378498;28;20035;-71
2022/12/20 18:09:52;;;;;;;;;;;10.20;99.90;;;;;;8363309;28;19946;-71
2022/12/20 18:13:57;;;;;;;;;;;10.30;99.90;;;;;;8360912;28;19924;-71
2022/12/20 18:18:06;;;;;;;;;;;10.20;99.90;;;;;;8364338;28;21461;-71
2022/12/20 18:22:08;;;;;;;;;;;10.20;99.90;;;;;;8363588;28;19925;-70
2022/12/20 18:26:17;;;;;;;;;;;10.20;99.90;;;;;;8378355;28;19939;-70
2022/12/20 18:30:19;;;;;;;;;;;10.20;99.90;;;;;;8363787;28;20429;-71
2022/12/20 18:34:20;;;;;;;;;;;10.20;99.90;;;;;;8366316;28;20432;-70
2022/12/20 18:38:22;;;;;;;;;;;10.20;99.90;;;;;;8360453;28;19979;-71
2022/12/20 18:42:24;;;;;;;;;;;10.20;99.90;;;;;;8365430;28;19924;-71
2022/12/20 18:46:25;;;;;;;;;;;10.20;99.90;;;;;;8362815;28;19970;-70
2022/12/20 18:50:27;;;;;;;;;;;10.20;99.90;;;;;;8360607;28;19925;-71
2022/12/20 18:54:29;;;;;;;;;;;10.20;99.90;;;;;;8358167;28;19943;-70
2022/12/20 18:58:31;;;;;;;;;;;10.20;99.90;;;;;;8357686;28;20357;-71
2022/12/20 19:02:32;;;;;;;;;;;10.20;99.90;;;;;;8366819;28;19929;-71
2022/12/20 19:06:35;;;;;;;;;;;10.20;99.90;;;;;;8363040;28;19970;-71
2022/12/20 19:10:36;;;;;;;;;;;10.20;99.90;;;;;;8343243;28;20015;-71
2022/12/20 19:14:38;;;;;;;;;;;10.20;99.90;;;;;;8363731;28;19928;-71
2022/12/20 19:18:40;;;;;;;;;;;10.20;99.90;;;;;;8357928;28;20288;-71
2022/12/20 19:22:42;;;;;;;;;;;10.20;99.90;;;;;;8359666;28;20075;-71
2022/12/20 19:26:43;;;;;;;;;;;10.10;99.90;;;;;;8348283;28;19929;-70
2022/12/20 19:30:45;;;;;;;;;;;10.10;99.90;;;;;;8358103;28;19976;-71
2022/12/20 19:34:47;;;;;;;;;;;10.10;99.90;;;;;;8360177;28;19925;-70
2022/12/20 19:38:49;;;;;;;;;;;10.10;99.90;;;;;;8360009;28;20366;-71
2022/12/20 19:42:51;;;;;;;;;;;10.10;99.90;;;;;;8357697;28;20292;-70
2022/12/20 19:46:53;;;;;;;;;;;10.10;99.90;;;;;;8362831;28;20277;-70
2022/12/20 19:51:05;;;;;;;;;;;10.20;99.90;;;;;;8360001;28;19928;-71
2022/12/20 19:55:09;;;;;;;;;;;10.10;99.90;;;;;;8367618;28;19925;-71
2022/12/20 19:59:12;;;;;;;;;;;10.10;99.90;;;;;;8372594;28;19929;-70
2022/12/20 20:03:15;;;;;;;;;;;10.10;99.90;;;;;;8368694;28;19970;-70
2022/12/20 20:07:17;;;;;;;;;;;10.10;99.90;;;;;;8369793;28;19928;-71
2022/12/20 20:11:19;;;;;;;;;;;10.10;99.90;;;;;;8361488;28;19991;-71
2022/12/20 20:15:21;;;;;;;;;;;10.20;99.90;;;;;;8370693;28;19937;-71
2022/12/20 20:19:23;;;;;;;;;;;10.20;99.90;;;;;;8343128;28;20224;-70
2022/12/20 20:23:25;;;;;;;;;;;10.10;99.90;;;;;;8338760;28;20058;-70
2022/12/20 20:27:27;;;;;;;;;;;10.10;99.90;;;;;;8354814;28;19929;-71
2022/12/20 20:31:29;;;;;;;;;;;10.10;99.90;;;;;;8368516;28;20287;-70
2022/12/20 20:35:30;;;;;;;;;;;10.20;99.90;;;;;;8358134;28;19986;-70
2022/12/20 20:39:32;;;;;;;;;;;10.10;99.90;;;;;;8336415;28;19929;-70
2022/12/20 20:43:35;;;;;;;;;;;10.10;99.90;;;;;;8367155;28;19946;-70
2022/12/20 20:47:38;;;;;;;;;;;10.10;99.90;;;;;;8359007;28;19924;-70
2022/12/20 20:51:40;;;;;;;;;;;10.10;99.90;;;;;;8353494;28;19936;-70
2022/12/20 20:55:42;;;;;;;;;;;10.10;99.90;;;;;;8363943;28;19929;-70
2022/12/20 20:59:43;;;;;;;;;;;10.10;99.90;;;;;;8359691;28;19931;-70
2022/12/20 21:03:45;;;;;;;;;;;10.10;99.90;;;;;;8351513;28;19932;-70
2022/12/20 21:07:47;;;;;;;;;;;10.10;99.90;;;;;;8358669;28;19925;-70
2022/12/20 21:11:48;;;;;;;;;;;10.10;99.90;;;;;;8342233;28;19932;-70
2022/12/20 21:15:51;;;;;;;;;;;10.00;99.90;;;;;;8362132;28;19925;-70
2022/12/20 21:19:53;;;;;;;;;;;10.00;99.90;;;;;;8360024;28;19924;-70
2022/12/20 21:23:54;;;;;;;;;;;10.00;99.90;;;;;;8336985;28;19924;-70
2022/12/20 21:27:56;;;;;;;;;;;10.00;99.90;;;;;;8362681;28;19952;-70
2022/12/20 21:31:58;;;;;;;;;;;10.00;99.90;;;;;;8340553;28;19925;-70
2022/12/20 21:36:04;;;;;;;;;;;10.00;99.90;;;;;;8339479;28;19924;-70
2022/12/20 21:40:06;;;;;;;;;;;9.90;99.90;;;;;;8359608;28;20015;-70
2022/12/20 21:44:09;;;;;;;;;;;9.90;99.90;;;;;;8360692;28;19929;-70
2022/12/20 21:48:11;;;;;;;;;;;9.90;99.90;;;;;;8379979;28;19935;-71
2022/12/20 21:52:12;;;;;;;;;;;9.90;99.90;;;;;;8380383;28;19964;-70
2022/12/20 21:56:15;;;;;;;;;;;9.90;99.90;;;;;;8342173;28;20257;-70
2022/12/20 22:00:18;;;;;;;;;;;9.90;99.90;;;;;;8362000;28;19940;-70
2022/12/20 22:04:22;;;;;;;;;;;9.90;99.90;;;;;;8373997;28;20111;-71
2022/12/20 22:08:25;;;;;;;;;;;9.80;99.90;;;;;;8387341;28;20244;-71
2022/12/20 22:12:26;;;;;;;;;;;9.80;99.90;;;;;;8369036;28;20018;-71
2022/12/20 22:16:29;;;;;;;;;;;9.80;99.90;;;;;;8393257;28;20364;-71
2022/12/20 22:20:31;;;;;;;;;;;9.80;99.90;;;;;;8377958;28;19929;-71
2022/12/20 22:24:36;;;;;;;;;;;9.80;99.90;;;;;;8374987;28;19982;-70
2022/12/20 22:28:38;;;;;;;;;;;9.70;99.90;;;;;;8382359;28;19928;-70
2022/12/20 22:32:40;;;;;;;;;;;9.80;99.90;;;;;;8384183;28;19948;-71
2022/12/20 22:36:42;;;;;;;;;;;9.70;99.90;;;;;;8366493;28;19932;-70
2022/12/20 22:40:44;;;;;;;;;;;9.70;99.90;;;;;;8368582;28;19932;-70
2022/12/20 22:44:45;;;;;;;;;;;9.70;99.90;;;;;;8353796;28;19929;-70
2022/12/20 22:48:47;;;;;;;;;;;9.60;99.90;;;;;;8384509;28;19932;-70
2022/12/20 23:03:23;;;;;;;;;;;9.60;99.90;;;;;;8375697;28;20382;-71
2022/12/20 23:07:25;;;;;;;;;;;9.50;99.90;;;;;;8384419;28;19925;-70
2022/12/20 23:15:47;;;;;;;;;;;9.50;99.90;;;;;;8392762;28;19924;-70
2022/12/20 23:24:10;;;;;;;;;;;9.50;99.90;;;;;;8388406;28;19946;-70
2022/12/20 23:28:11;;;;;;;;;;;9.50;99.90;;;;;;8367246;28;20443;-71
2022/12/20 23:32:13;;;;;;;;;;;9.50;99.90;;;;;;8358431;28;20023;-70
2022/12/20 23:36:15;;;;;;;;;;;9.50;99.90;;;;;;8379386;28;19935;-70
2022/12/20 23:40:16;;;;;;;;;;;9.40;99.90;;;;;;8375801;28;20040;-70
2022/12/20 23:44:18;;;;;;;;;;;9.40;99.90;;;;;;8363907;28;19932;-70
2022/12/20 23:48:20;;;;;;;;;;;9.40;99.90;;;;;;8386510;28;19999;-70
2022/12/20 23:52:21;;;;;;;;;;;9.40;99.90;;;;;;8372564;28;19925;-70
2022/12/20 23:56:23;;;;;;;;;;;9.40;99.90;;;;;;8371272;28;19930;-70
